»·PEaware :: AAL1477 KPHX-KSNA

AAL1477 :: KPHX-KSNA

FLIGHT INFORMATION

Flight Status: Arrived
Operator:
American Airlines
More flights by this operator :: More flights under this callsign
Pilot: Max H. (24278)
Aircraft: AIRBUS A319
(A319)
More flights by this aircraft type
Origin: KPHX Phoenix Sky Harbor Intl
United States
Destination: KSNA John Wayne-Orange Co
United States
More flights between these airports :: More routes between these airports
Route: +KEENS2 HRRBR EMLLD DSNEE4
File this flight plan on PilotEdge
Remarks:
Altitude:
(Current/Filed)
36,000ft
Speed:
(Current/Filed)
350kts
Departed: 11-Jul-19 07:03 PM
Arrived: 11-Jul-19 07:56 PM
Distance/Time
Traveled:
293nm/0:53
Distance/Time
To Go:
Arrived

Flight Plot

Page will automatically refresh every two minutes.

Flight plan parsing failed; only flown route is shown


Map Options




Map Legend


Flown Route
Filed Route
Departure Airport
Arrival Airport
Navaid (VOR, NDB)
Fix

Horizontal Profiles

Position Reports

Time Latitude Longitude Heading Altitude Ground
Speed
11-Jul-19 18:41 33.436523 -111.998715 270 1149ft 0kts
11-Jul-19 18:42 33.436523 -111.998715 270 1149ft 0kts
11-Jul-19 18:44 33.436523 -111.998715 270 1149ft 0kts
11-Jul-19 18:45 33.436523 -111.998715 270 1149ft 0kts
11-Jul-19 18:46 33.436523 -111.998715 270 1149ft 0kts
11-Jul-19 18:47 33.436523 -111.998715 270 1149ft 0kts
11-Jul-19 18:48 33.436523 -111.998715 270 1149ft 0kts
11-Jul-19 18:50 33.436523 -111.998715 270 1149ft 0kts
11-Jul-19 18:51 33.436523 -111.998715 270 1149ft 0kts
11-Jul-19 18:52 33.436523 -111.998715 270 1149ft 0kts
11-Jul-19 18:53 33.436521 -111.998338 244 1149ft 2kts
11-Jul-19 18:54 33.436769 -111.998232 180 1149ft 0kts
11-Jul-19 18:55 33.436768 -111.998232 179 1149ft 0kts
11-Jul-19 18:56 33.436765 -111.998232 179 1149ft 0kts
11-Jul-19 18:57 33.438403 -111.998207 357 1149ft 11kts
11-Jul-19 18:58 33.439754 -111.994975 88 1149ft 18kts
11-Jul-19 18:59 33.440195 -111.992323 357 1149ft 0kts
11-Jul-19 19:00 33.440197 -111.992323 357 1149ft 0kts
11-Jul-19 19:01 33.440199 -111.992324 357 1149ft 0kts
11-Jul-19 19:02 33.440838 -111.992838 271 1149ft 0kts
11-Jul-19 19:03 33.440858 -112.012805 269 1155ft 163kts
11-Jul-19 19:03 33.433874 -112.059466 245 3267ft 167kts
11-Jul-19 19:05 33.408165 -112.142161 249 5708ft 263kts
11-Jul-19 19:06 33.386677 -112.228467 271 9463ft 280kts
11-Jul-19 19:06 33.398399 -112.307305 281 12022ft 297kts
11-Jul-19 19:07 33.415783 -112.406424 281 14878ft 311kts
11-Jul-19 19:09 33.437227 -112.527431 281 17741ft 325kts
11-Jul-19 19:09 33.449565 -112.617885 273 19570ft 335kts
11-Jul-19 19:10 33.451880 -112.732008 268 20944ft 355kts
11-Jul-19 19:11 33.462227 -112.852674 281 22452ft 373kts
11-Jul-19 19:12 33.485594 -112.975483 280 23022ft 380kts
11-Jul-19 19:13 33.508906 -113.099917 280 24815ft 387kts
11-Jul-19 19:14 33.532583 -113.227284 280 26509ft 395kts
11-Jul-19 19:15 33.556677 -113.357718 280 27823ft 406kts
11-Jul-19 19:16 33.581978 -113.495219 280 27862ft 448kts
11-Jul-19 19:17 33.610105 -113.647220 280 27851ft 474kts
11-Jul-19 19:18 33.638738 -113.801467 280 27879ft 474kts
11-Jul-19 19:19 33.682229 -113.951337 293 27872ft 478kts
11-Jul-19 19:20 33.738523 -114.096073 292 27854ft 478kts
11-Jul-19 19:21 33.768709 -114.249585 276 27846ft 473kts
11-Jul-19 19:22 33.787769 -114.406335 275 27831ft 473kts
11-Jul-19 19:23 33.806381 -114.562708 275 27822ft 472kts
11-Jul-19 19:24 33.824664 -114.718937 275 27824ft 472kts
11-Jul-19 19:25 33.842707 -114.875360 275 27825ft 471kts
11-Jul-19 19:26 33.859977 -115.031632 275 27831ft 470kts
11-Jul-19 19:27 33.877095 -115.187533 275 27845ft 469kts
11-Jul-19 19:28 33.894197 -115.343390 275 27858ft 469kts
11-Jul-19 19:29 33.911151 -115.498727 275 27869ft 468kts
11-Jul-19 19:30 33.927687 -115.653916 273 27556ft 460kts
11-Jul-19 19:31 33.938412 -115.808504 274 23663ft 466kts
11-Jul-19 19:32 33.948911 -115.960240 274 19665ft 436kts
11-Jul-19 19:33 33.958471 -116.100602 274 16305ft 397kts
11-Jul-19 19:34 33.961474 -116.223002 263 16420ft 359kts
11-Jul-19 19:35 33.947308 -116.342352 261 16412ft 359kts
11-Jul-19 19:36 33.932792 -116.461476 261 16395ft 359kts
11-Jul-19 19:37 33.917911 -116.580091 260 16400ft 359kts
11-Jul-19 19:38 33.902595 -116.699073 260 16446ft 359kts
11-Jul-19 19:39 33.888540 -116.816733 262 16063ft 346kts
11-Jul-19 19:40 33.876191 -116.930146 261 14776ft 338kts
11-Jul-19 19:41 33.864114 -117.039106 261 13964ft 315kts
11-Jul-19 19:42 33.853090 -117.138578 261 13566ft 284kts
11-Jul-19 19:43 33.842955 -117.229315 261 12699ft 267kts
11-Jul-19 19:44 33.833065 -117.317302 261 11042ft 263kts
11-Jul-19 19:45 33.823277 -117.403807 260 9139ft 260kts
11-Jul-19 19:46 33.806325 -117.486452 246 7995ft 254kts
11-Jul-19 19:47 33.802346 -117.570712 286 7968ft 259kts
11-Jul-19 19:48 33.834929 -117.648244 296 7292ft 256kts
11-Jul-19 19:49 33.867588 -117.722480 296 5319ft 238kts
11-Jul-19 19:50 33.842590 -117.774650 184 3242ft 214kts
11-Jul-19 19:51 33.786398 -117.790619 209 2985ft 212kts
11-Jul-19 19:52 33.744366 -117.824635 215 1765ft 176kts
11-Jul-19 19:53 33.706513 -117.849383 209 642ft 137kts
11-Jul-19 19:54 33.674659 -117.869526 209 70ft 62kts
11-Jul-19 19:55 33.668841 -117.871425 67 70ft 0kts
11-Jul-19 19:56 33.673034 -117.867021 41 70ft 25kts

Navigation Log

Ident Type
Flight plan parsing failed, navigation log unavailable